Time;durP1;ratioP1;P1;durP2;ratioP2;P2;SDS_P1;SDS_P2;PMS_P1;PMS_P2;Temp;Humidity;BMP_temperature;BMP_pressure;BME280_temperature;BME280_humidity;BME280_pressure;Samples;Min_cycle;Max_cycle;Signal;HPM_P1;HPM_P2
2022/08/28 00:00:22;;;;;;;;;;;;;;;24.38;54.16;101383.00;5125315;28;20303;-38
2022/08/28 00:02:48;;;;;;;;;;;;;;;24.39;54.27;101381.03;5123935;28;20006;-37
2022/08/28 00:05:15;;;;;;;;;;;;;;;24.39;54.24;101379.06;5126497;28;20293;-37
2022/08/28 00:07:40;;;;;;;;;;;;;;;24.39;54.24;101395.78;5125650;28;19971;-37
2022/08/28 00:10:14;;;;;;;;;;;;;;;24.39;54.07;101386.59;5122140;28;20282;-37
2022/08/28 00:12:39;;;;;;;;;;;;;;;24.39;54.21;101387.41;5119027;28;20349;-37
2022/08/28 00:15:08;;;;;;;;;;;;;;;24.39;54.31;101386.59;5123189;28;19924;-37
2022/08/28 00:17:37;;;;;;;;;;;;;;;24.39;54.25;101392.16;5128093;28;20368;-37
2022/08/28 00:20:03;;;;;;;;;;;;;;;24.39;54.20;101394.94;5119028;28;19928;-37
2022/08/28 00:22:29;;;;;;;;;;;;;;;24.38;54.32;101396.91;5119094;28;19954;-37
2022/08/28 00:24:55;;;;;;;;;;;;;;;24.39;54.19;101392.16;5125756;28;19930;-37
2022/08/28 00:27:51;;;;;;;;;;;;;;;24.39;54.27;101394.94;5127175;28;19933;-37
2022/08/28 00:30:06;;;;;;;;;;;;;;;24.38;54.19;101402.47;5107819;28;20079;-37
2022/08/28 00:32:33;;;;;;;;;;;;;;;24.38;54.11;101399.69;5122060;28;19969;-37
2022/08/28 00:35:00;;;;;;;;;;;;;;;24.39;54.27;101397.72;5124563;28;19959;-37
2022/08/28 00:37:26;;;;;;;;;;;;;;;24.39;54.24;101403.28;5119566;28;20345;-37
2022/08/28 00:39:53;;;;;;;;;;;;;;;24.38;54.05;101402.47;5124351;27;19923;-37
2022/08/28 00:42:19;;;;;;;;;;;;;;;24.38;54.24;101396.09;5105850;28;19932;-37
2022/08/28 00:44:45;;;;;;;;;;;;;;;24.38;54.23;101399.69;5103028;28;19924;-37
2022/08/28 00:47:10;;;;;;;;;;;;;;;24.38;54.17;101396.91;5125733;28;20365;-37
2022/08/28 00:49:36;;;;;;;;;;;;;;;24.39;54.21;101397.72;5106255;28;19923;-37
2022/08/28 00:52:04;;;;;;;;;;;;;;;24.38;54.27;101399.69;5124131;27;20285;-37
2022/08/28 00:54:32;;;;;;;;;;;;;;;24.38;54.27;101393.31;5120399;28;20366;-37
2022/08/28 00:56:59;;;;;;;;;;;;;;;24.37;54.25;101395.25;5102765;28;20015;-37
2022/08/28 00:59:25;;;;;;;;;;;;;;;24.38;54.24;101393.31;5122817;28;20046;-37
2022/08/28 01:01:53;;;;;;;;;;;;;;;24.39;54.05;101406.09;5120420;28;20346;-37
2022/08/28 01:04:19;;;;;;;;;;;;;;;24.39;54.18;101403.28;5108759;28;20013;-37
2022/08/28 01:06:44;;;;;;;;;;;;;;;24.39;54.12;101394.94;5104223;28;19991;-37
2022/08/28 01:09:11;;;;;;;;;;;;;;;24.37;54.20;101398.03;5123744;28;20243;-37
2022/08/28 01:11:39;;;;;;;;;;;;;;;24.37;54.21;101398.03;5104663;28;20018;-37
2022/08/28 01:14:04;;;;;;;;;;;;;;;24.38;54.21;101396.91;5105656;28;19927;-38
2022/08/28 01:16:30;;;;;;;;;;;;;;;24.37;54.20;101398.03;5121739;28;19984;-37
2022/08/28 01:18:59;;;;;;;;;;;;;;;24.37;54.28;101395.25;5103078;28;19924;-37
2022/08/28 01:21:28;;;;;;;;;;;;;;;24.37;54.18;101398.03;5107892;28;19970;-37
2022/08/28 01:23:56;;;;;;;;;;;;;;;24.38;54.15;101399.69;5111148;28;20006;-37
2022/08/28 01:26:23;;;;;;;;;;;;;;;24.37;54.23;101397.19;5104435;28;20424;-37
2022/08/28 01:28:48;;;;;;;;;;;;;;;24.38;54.05;101404.44;5123047;28;19961;-37
2022/08/28 01:31:14;;;;;;;;;;;;;;;24.37;54.23;101399.97;5120654;28;19932;-37
2022/08/28 01:33:40;;;;;;;;;;;;;;;24.37;54.17;101409.19;5123287;28;19924;-38
2022/08/28 01:36:09;;;;;;;;;;;;;;;24.38;54.11;101407.22;5100895;28;19984;-37
2022/08/28 01:38:35;;;;;;;;;;;;;;;24.37;54.12;101402.75;5125906;28;19962;-37
2022/08/28 01:41:00;;;;;;;;;;;;;;;24.37;54.19;101414.75;5122613;27;19982;-37
2022/08/28 01:43:26;;;;;;;;;;;;;;;24.38;54.20;101410.00;5124294;28;20281;-37
2022/08/28 01:45:53;;;;;;;;;;;;;;;24.37;54.01;101420.31;5120574;28;19966;-38
2022/08/28 01:48:19;;;;;;;;;;;;;;;24.37;54.19;101411.97;5125642;28;19924;-37
2022/08/28 01:50:45;;;;;;;;;;;;;;;24.38;53.97;101410.00;5119405;28;19975;-37
2022/08/28 01:53:12;;;;;;;;;;;;;;;24.37;54.10;101417.53;5121517;28;19930;-37
2022/08/28 01:55:38;;;;;;;;;;;;;;;24.37;54.21;101413.91;5123757;28;19966;-38
2022/08/28 01:58:04;;;;;;;;;;;;;;;24.36;54.20;101413.06;5105591;28;19933;-37
2022/08/28 02:00:30;;;;;;;;;;;;;;;24.37;54.23;101419.47;5119809;28;19923;-37
2022/08/28 02:02:57;;;;;;;;;;;;;;;24.36;54.13;101418.63;5123264;27;19961;-37
2022/08/28 02:05:23;;;;;;;;;;;;;;;24.37;54.05;101425.03;5125280;28;20021;-37
2022/08/28 02:07:49;;;;;;;;;;;;;;;24.36;54.17;101421.41;5123271;28;20026;-37
2022/08/28 02:10:15;;;;;;;;;;;;;;;24.36;54.14;101420.59;5125027;28;20004;-36
2022/08/28 02:12:41;;;;;;;;;;;;;;;24.36;54.19;101418.63;5122960;28;19923;-37
2022/08/28 02:15:07;;;;;;;;;;;;;;;24.37;54.01;101427.81;5120915;28;19975;-37
2022/08/28 02:17:33;;;;;;;;;;;;;;;24.36;54.05;101421.41;5120161;28;20084;-37
2022/08/28 02:19:58;;;;;;;;;;;;;;;24.36;54.14;101424.22;5118444;28;19923;-37
2022/08/28 02:22:24;;;;;;;;;;;;;;;24.37;54.11;101430.59;5121435;28;19980;-37
2022/08/28 02:24:50;;;;;;;;;;;;;;;24.37;54.24;101437.03;5120556;28;20100;-37
2022/08/28 02:27:15;;;;;;;;;;;;;;;24.37;54.18;101436.16;5117034;28;19924;-37
2022/08/28 02:29:41;;;;;;;;;;;;;;;24.37;54.05;101444.50;5104731;28;20325;-37
2022/08/28 02:32:06;;;;;;;;;;;;;;;24.37;53.73;101445.38;5103882;28;19930;-37
2022/08/28 02:34:33;;;;;;;;;;;;;;;24.36;54.23;101448.44;5121385;28;19942;-37
2022/08/28 02:36:58;;;;;;;;;;;;;;;24.36;54.19;101454.81;5122129;28;19974;-37
2022/08/28 02:39:24;;;;;;;;;;;;;;;24.36;54.21;101448.44;5123027;27;19928;-37
2022/08/28 02:41:49;;;;;;;;;;;;;;;24.36;54.05;101449.25;5123170;28;19931;-37
2022/08/28 02:44:16;;;;;;;;;;;;;;;24.36;53.97;101443.69;5121187;28;20374;-37
2022/08/28 02:46:41;;;;;;;;;;;;;;;24.36;54.07;101442.88;5119461;28;20286;-37
2022/08/28 02:49:07;;;;;;;;;;;;;;;24.36;53.81;101451.22;5121688;28;20916;-38
2022/08/28 02:51:33;;;;;;;;;;;;;;;24.36;54.19;101454.00;5123309;28;19932;-37
2022/08/28 02:53:58;;;;;;;;;;;;;;;24.37;54.04;101458.44;5117583;28;19924;-37
2022/08/28 02:56:24;;;;;;;;;;;;;;;24.36;54.04;101463.19;5119950;28;19928;-38
2022/08/28 02:58:49;;;;;;;;;;;;;;;24.35;54.05;101453.16;5122336;28;19928;-37
2022/08/28 03:01:15;;;;;;;;;;;;;;;24.36;54.12;101456.78;5121725;28;19930;-38
2022/08/28 03:03:41;;;;;;;;;;;;;;;24.35;54.17;101458.72;5121798;28;20260;-37
2022/08/28 03:06:07;;;;;;;;;;;;;;;24.36;54.13;101456.78;5117853;28;19932;-37
2022/08/28 03:08:32;;;;;;;;;;;;;;;24.36;54.04;101462.34;5100783;28;20010;-37
2022/08/28 03:10:58;;;;;;;;;;;;;;;24.36;54.06;101465.13;5120369;27;19927;-37
2022/08/28 03:13:24;;;;;;;;;;;;;;;24.35;54.10;101472.63;5104496;28;19939;-37
2022/08/28 03:15:52;;;;;;;;;;;;;;;24.35;54.06;101472.63;5125778;28;19931;-37
2022/08/28 03:18:21;;;;;;;;;;;;;;;24.36;53.94;101470.72;5124628;28;19923;-37
2022/08/28 03:20:47;;;;;;;;;;;;;;;24.36;53.82;101476.28;5105248;28;19923;-37
2022/08/28 03:23:27;;;;;;;;;;;;;;;24.36;54.04;101465.13;5119339;28;19923;-38
2022/08/28 03:25:58;;;;;;;;;;;;;;;24.35;53.98;101474.59;5119676;28;19951;-37
2022/08/28 03:28:24;;;;;;;;;;;;;;;24.36;53.89;101481.84;5108734;28;20047;-37
2022/08/28 03:30:50;;;;;;;;;;;;;;;24.36;53.83;101473.50;5105952;28;19996;-37
2022/08/28 03:33:15;;;;;;;;;;;;;;;24.35;53.87;101475.41;5124775;28;19935;-37
2022/08/28 03:35:41;;;;;;;;;;;;;;;24.35;53.87;101480.97;5106058;28;19930;-37
2022/08/28 03:38:07;;;;;;;;;;;;;;;24.35;54.15;101471.81;5125572;27;19930;-37
2022/08/28 03:40:32;;;;;;;;;;;;;;;24.36;54.08;101479.06;5123635;28;19924;-37
2022/08/28 03:42:58;;;;;;;;;;;;;;;24.35;53.94;101478.19;5120885;28;19924;-37
2022/08/28 03:45:24;;;;;;;;;;;;;;;24.36;53.91;101487.41;5121823;28;19986;-37
2022/08/28 03:47:50;;;;;;;;;;;;;;;24.35;53.82;101485.72;5123061;28;20273;-37
2022/08/28 03:50:16;;;;;;;;;;;;;;;24.35;53.91;101483.78;5122331;28;19931;-37
2022/08/28 03:52:44;;;;;;;;;;;;;;;24.35;53.80;101491.28;5121697;28;19932;-37
2022/08/28 03:55:10;;;;;;;;;;;;;;;24.35;53.90;101486.56;5124698;28;19931;-37
2022/08/28 03:57:36;;;;;;;;;;;;;;;24.35;54.04;101496.88;5104436;28;20274;-37
2022/08/28 04:00:03;;;;;;;;;;;;;;;24.34;53.85;101495.22;5108292;28;20001;-37
2022/08/28 04:02:29;;;;;;;;;;;;;;;24.35;53.74;101497.69;5123129;28;20031;-37
2022/08/28 04:04:54;;;;;;;;;;;;;;;24.36;53.78;101498.53;5128728;28;20357;-37
2022/08/28 04:07:21;;;;;;;;;;;;;;;24.34;54.12;101501.59;5118610;28;19931;-37
2022/08/28 04:09:46;;;;;;;;;;;;;;;24.35;54.03;101505.22;5124081;28;19963;-37
2022/08/28 04:12:13;;;;;;;;;;;;;;;24.35;53.72;101502.44;5104266;28;19969;-37
2022/08/28 04:14:38;;;;;;;;;;;;;;;24.34;54.07;101509.97;5121811;28;19963;-39
2022/08/28 04:17:04;;;;;;;;;;;;;;;24.35;53.98;101499.66;5124889;28;19993;-38
2022/08/28 04:19:30;;;;;;;;;;;;;;;24.34;54.08;101506.34;5126319;28;19931;-37
2022/08/28 04:21:55;;;;;;;;;;;;;;;24.35;53.72;101514.38;5126271;28;20399;-37
2022/08/28 04:24:21;;;;;;;;;;;;;;;24.36;53.75;101512.47;5107361;28;19927;-38
2022/08/28 04:26:47;;;;;;;;;;;;;;;24.35;53.82;101516.34;5122098;27;19923;-37
2022/08/28 04:29:13;;;;;;;;;;;;;;;24.35;53.78;101513.56;5125663;28;20282;-37
2022/08/28 04:31:38;;;;;;;;;;;;;;;24.34;53.91;101512.75;5107347;28;19923;-37
2022/08/28 04:34:05;;;;;;;;;;;;;;;24.34;53.92;101521.09;5123530;28;20014;-37
2022/08/28 04:36:32;;;;;;;;;;;;;;;24.34;53.90;101526.66;5124938;28;19973;-37
2022/08/28 04:38:58;;;;;;;;;;;;;;;24.35;53.52;101521.91;5106786;28;19971;-37
2022/08/28 04:41:23;;;;;;;;;;;;;;;24.34;53.60;101518.31;5108382;28;19945;-37
2022/08/28 04:43:51;;;;;;;;;;;;;;;24.35;53.90;101530.25;5121464;28;19928;-37
2022/08/28 04:46:17;;;;;;;;;;;;;;;24.34;53.89;101526.66;5120279;28;20334;-37
2022/08/28 04:48:42;;;;;;;;;;;;;;;24.34;53.91;101523.06;5119615;28;19992;-37
2022/08/28 04:51:08;;;;;;;;;;;;;;;24.34;53.90;101528.63;5119316;28;19986;-37
2022/08/28 04:53:35;;;;;;;;;;;;;;;24.33;53.89;101530.59;5121439;28;19963;-37
2022/08/28 04:56:02;;;;;;;;;;;;;;;24.33;53.92;101522.22;5102867;28;20027;-37
2022/08/28 04:58:29;;;;;;;;;;;;;;;24.34;53.54;101525.84;5127777;28;19924;-37
2022/08/28 05:00:55;;;;;;;;;;;;;;;24.34;53.75;101535.00;5121296;28;20413;-37
2022/08/28 05:03:20;;;;;;;;;;;;;;;24.33;53.93;101530.59;5119600;28;19963;-37
2022/08/28 05:05:47;;;;;;;;;;;;;;;24.33;53.75;101536.16;5119443;28;20349;-37
2022/08/28 05:08:13;;;;;;;;;;;;;;;24.34;53.87;101546.16;5126179;28;20022;-37
2022/08/28 05:10:39;;;;;;;;;;;;;;;24.34;54.06;101542.53;5106907;28;19924;-37
2022/08/28 05:13:05;;;;;;;;;;;;;;;24.34;53.56;101542.53;5107486;28;19928;-37
2022/08/28 05:15:30;;;;;;;;;;;;;;;24.34;53.49;101542.53;5125567;28;19955;-37
2022/08/28 05:17:56;;;;;;;;;;;;;;;24.33;53.82;101538.94;5122617;28;19924;-37
2022/08/28 05:20:21;;;;;;;;;;;;;;;24.34;53.74;101542.53;5123127;28;19938;-37
2022/08/28 05:22:47;;;;;;;;;;;;;;;24.33;53.68;101547.28;5125314;28;19992;-37
2022/08/28 05:25:13;;;;;;;;;;;;;;;24.33;53.77;101546.47;5120674;28;20372;-37
2022/08/28 05:27:39;;;;;;;;;;;;;;;24.33;53.99;101554.81;5122720;28;20022;-37
2022/08/28 05:30:05;;;;;;;;;;;;;;;24.34;53.55;101556.47;5122890;28;19931;-38
2022/08/28 05:32:30;;;;;;;;;;;;;;;24.34;53.66;101548.09;5119649;28;20460;-37
2022/08/28 05:34:56;;;;;;;;;;;;;;;24.34;53.87;101559.25;5125873;28;20354;-37
2022/08/28 05:37:22;;;;;;;;;;;;;;;24.33;53.52;101560.38;5118478;27;19985;-37
2022/08/28 05:39:47;;;;;;;;;;;;;;;24.33;53.72;101563.97;5124869;28;19938;-37
2022/08/28 05:42:13;;;;;;;;;;;;;;;24.33;53.73;101558.41;5122165;28;19924;-37
2022/08/28 05:44:38;;;;;;;;;;;;;;;24.33;53.83;101557.59;5124091;27;19942;-37
2022/08/28 05:47:04;;;;;;;;;;;;;;;24.34;53.84;101562.03;5119001;28;19923;-37
2022/08/28 05:49:29;;;;;;;;;;;;;;;24.33;53.64;101558.41;5121554;28;19931;-37
2022/08/28 05:51:55;;;;;;;;;;;;;;;24.33;53.90;101563.16;5123701;28;19935;-37
2022/08/28 05:54:21;;;;;;;;;;;;;;;24.33;53.92;101565.94;5120459;28;19932;-37
2022/08/28 05:56:46;;;;;;;;;;;;;;;24.33;53.90;101569.56;5121194;28;19974;-37
2022/08/28 05:59:12;;;;;;;;;;;;;;;24.33;53.83;101574.28;5121226;28;19930;-37
2022/08/28 06:01:39;;;;;;;;;;;;;;;24.33;53.86;101571.50;5107866;28;21098;-37
2022/08/28 06:04:07;;;;;;;;;;;;;;;24.33;53.53;101574.28;5101062;28;19975;-37
2022/08/28 06:06:33;;;;;;;;;;;;;;;24.32;53.67;101576.25;5100371;28;19938;-37
2022/08/28 06:09:00;;;;;;;;;;;;;;;24.33;53.60;101574.28;5124739;28;19931;-39
2022/08/28 06:11:27;;;;;;;;;;;;;;;24.33;53.85;101585.44;5106268;28;20037;-37
2022/08/28 06:13:56;;;;;;;;;;;;;;;24.32;53.71;101581.81;5106186;28;19980;-37
2022/08/28 06:16:22;;;;;;;;;;;;;;;24.31;53.84;101580.16;5101956;28;19931;-37
2022/08/28 06:18:49;;;;;;;;;;;;;;;24.32;53.60;101573.47;5122763;28;19931;-37
2022/08/28 06:21:15;;;;;;;;;;;;;;;24.32;53.68;101579.03;5117031;28;19971;-37
2022/08/28 06:23:40;;;;;;;;;;;;;;;24.32;53.60;101584.59;5122284;28;19923;-37
2022/08/28 06:26:06;;;;;;;;;;;;;;;24.32;54.07;101587.38;5116731;28;20297;-38
2022/08/28 06:28:32;;;;;;;;;;;;;;;24.31;54.01;101594.09;5121846;28;19923;-37
2022/08/28 06:30:59;;;;;;;;;;;;;;;24.31;53.66;101594.09;5102738;28;20022;-37
2022/08/28 06:33:45;;;;;;;;;;;;;;;24.31;53.73;101588.53;5091910;28;20378;-37
2022/08/28 06:36:10;;;;;;;;;;;;;;;24.32;53.76;101595.75;5121396;27;19969;-37
2022/08/28 06:38:36;;;;;;;;;;;;;;;24.31;53.74;101599.66;5103526;28;19946;-37
2022/08/28 06:41:01;;;;;;;;;;;;;;;24.32;53.66;101601.31;5106814;28;19931;-37
2022/08/28 06:43:27;;;;;;;;;;;;;;;24.31;53.43;101602.44;5123621;28;19924;-38
2022/08/28 06:45:54;;;;;;;;;;;;;;;24.33;53.68;101596.56;5120085;28;19932;-37
2022/08/28 06:48:23;;;;;;;;;;;;;;;24.32;53.77;101604.09;5123181;28;20500;-37
2022/08/28 06:50:49;;;;;;;;;;;;;;;24.32;53.56;101604.09;5122944;28;20023;-37
2022/08/28 06:53:15;;;;;;;;;;;;;;;24.31;54.00;101605.22;5121030;28;19923;-37
2022/08/28 06:55:41;;;;;;;;;;;;;;;24.31;54.00;101599.66;5123019;28;19963;-38
2022/08/28 06:58:07;;;;;;;;;;;;;;;24.32;53.54;101606.06;5103832;28;19930;-37
2022/08/28 07:00:34;;;;;;;;;;;;;;;24.31;53.54;101602.44;5110866;28;20019;-37
2022/08/28 07:03:00;;;;;;;;;;;;;;;24.31;53.82;101610.78;5107776;28;19970;-37
2022/08/28 07:05:25;;;;;;;;;;;;;;;24.32;53.49;101606.88;5124575;28;20395;-37
2022/08/28 07:07:51;;;;;;;;;;;;;;;24.32;53.44;101604.09;5125493;27;19924;-37
2022/08/28 07:10:17;;;;;;;;;;;;;;;24.32;53.58;101608.84;5108697;28;19942;-37
2022/08/28 07:12:43;;;;;;;;;;;;;;;24.32;53.68;101601.31;5122088;28;19923;-38
2022/08/28 07:15:08;;;;;;;;;;;;;;;24.31;53.86;101607.16;5124851;28;19930;-37
2022/08/28 07:17:34;;;;;;;;;;;;;;;24.31;53.78;101608.00;5120953;28;19931;-37
2022/08/28 07:20:01;;;;;;;;;;;;;;;24.31;53.87;101613.56;5125970;28;20004;-37
2022/08/28 07:22:26;;;;;;;;;;;;;;;24.31;53.94;101613.56;5122620;28;19924;-38
2022/08/28 07:24:53;;;;;;;;;;;;;;;24.32;53.98;101617.19;5127250;28;19927;-37
2022/08/28 07:27:20;;;;;;;;;;;;;;;24.32;53.71;101617.19;5121229;28;19924;-37
2022/08/28 07:29:45;;;;;;;;;;;;;;;24.32;53.79;101614.41;5111472;28;20015;-37
2022/08/28 07:32:12;;;;;;;;;;;;;;;24.31;53.82;101613.56;5130137;28;19931;-37
2022/08/28 07:34:38;;;;;;;;;;;;;;;24.31;53.69;101619.13;5128445;28;19977;-38
2022/08/28 07:37:05;;;;;;;;;;;;;;;24.31;53.50;101621.06;5127111;27;19924;-37
2022/08/28 07:39:30;;;;;;;;;;;;;;;24.32;53.91;101619.97;5125594;28;19959;-38
2022/08/28 07:41:56;;;;;;;;;;;;;;;24.31;54.01;101621.94;5122129;28;20286;-37
2022/08/28 07:44:53;;;;;;;;;;;;;;;24.30;53.93;101623.03;5123987;27;19932;-37
2022/08/28 07:47:07;;;;;;;;;;;;;;;24.30;53.82;101625.81;5107607;28;20815;-37
2022/08/28 07:49:34;;;;;;;;;;;;;;;24.32;53.34;101625.53;5122288;28;19963;-37
2022/08/28 07:51:59;;;;;;;;;;;;;;;24.29;53.54;101622.22;5123426;28;19930;-37
2022/08/28 07:54:25;;;;;;;;;;;;;;;24.29;53.90;101619.41;5121255;28;20617;-37
2022/08/28 07:56:51;;;;;;;;;;;;;;;24.29;53.93;101619.41;5121612;28;20274;-37
2022/08/28 07:59:17;;;;;;;;;;;;;;;24.30;53.96;101628.59;5125553;28;19958;-37
2022/08/28 08:01:45;;;;;;;;;;;;;;;24.29;53.92;101627.78;5127557;28;19930;-37
2022/08/28 08:04:12;;;;;;;;;;;;;;;24.29;53.95;101626.94;5123732;28;19924;-38
2022/08/28 08:06:38;;;;;;;;;;;;;;;24.31;53.62;101626.63;5105406;28;20023;-37
2022/08/28 08:09:04;;;;;;;;;;;;;;;24.29;54.00;101626.94;5123253;28;19962;-38
2022/08/28 08:11:29;;;;;;;;;;;;;;;24.29;53.85;101638.09;5125968;28;20006;-37
2022/08/28 08:14:02;;;;;;;;;;;;;;;24.29;53.95;101635.31;5125388;28;20014;-38
2022/08/28 08:16:32;;;;;;;;;;;;;;;24.29;53.92;101633.34;5117789;28;19930;-38
2022/08/28 08:18:57;;;;;;;;;;;;;;;24.29;54.00;101633.34;5124041;28;20056;-37
2022/08/28 08:21:23;;;;;;;;;;;;;;;24.29;53.77;101636.13;5124015;28;19935;-37
2022/08/28 08:23:55;;;;;;;;;;;;;;;24.29;53.86;101633.34;5122070;28;19924;-37
2022/08/28 08:26:21;;;;;;;;;;;;;;;24.29;53.92;101638.91;5123707;28;19942;-37
2022/08/28 08:28:47;;;;;;;;;;;;;;;24.29;53.93;101647.25;5106815;28;19942;-37
2022/08/28 08:31:14;;;;;;;;;;;;;;;24.29;53.87;101643.66;5124265;28;19924;-37
2022/08/28 08:33:42;;;;;;;;;;;;;;;24.29;53.96;101636.13;5123511;28;20013;-38
2022/08/28 08:36:08;;;;;;;;;;;;;;;24.28;54.03;101637.25;5125961;27;19955;-38
2022/08/28 08:38:34;;;;;;;;;;;;;;;24.29;53.94;101638.09;5126217;28;19967;-37
2022/08/28 08:41:00;;;;;;;;;;;;;;;24.30;53.67;101636.94;5121000;28;20277;-37
2022/08/28 08:43:27;;;;;;;;;;;;;;;24.28;53.98;101642.81;5102406;28;20352;-37
2022/08/28 08:45:53;;;;;;;;;;;;;;;24.29;53.62;101646.44;5123898;28;20055;-37
2022/08/28 08:48:23;;;;;;;;;;;;;;;24.28;54.00;101640.03;5127108;28;19927;-37
2022/08/28 08:50:49;;;;;;;;;;;;;;;24.29;53.61;101644.47;5101862;28;20429;-37
2022/08/28 08:53:20;;;;;;;;;;;;;;;24.29;53.77;101646.44;5125609;28;19929;-37
2022/08/28 08:55:46;;;;;;;;;;;;;;;24.28;53.92;101645.59;5121093;28;20048;-37
2022/08/28 08:58:32;;;;;;;;;;;;;;;24.28;53.95;101636.44;5105830;28;20018;-37
2022/08/28 09:01:02;;;;;;;;;;;;;;;24.28;53.84;101640.03;5109244;28;20116;-37
2022/08/28 09:03:39;;;;;;;;;;;;;;;24.28;53.86;101639.22;5106302;28;19923;-38
2022/08/28 09:06:14;;;;;;;;;;;;;;;24.28;53.86;101636.44;5105752;28;19932;-37
2022/08/28 09:08:40;;;;;;;;;;;;;;;24.28;53.63;101637.25;5122254;28;20015;-38
2022/08/28 09:11:11;;;;;;;;;;;;;;;24.27;53.85;101638.38;5104647;28;20056;-37
2022/08/28 09:13:43;;;;;;;;;;;;;;;24.29;53.33;101635.31;5120313;28;20338;-37
2022/08/28 09:16:12;;;;;;;;;;;;;;;24.27;53.73;101638.38;5100456;28;20476;-37
2022/08/28 09:18:38;;;;;;;;;;;;;;;24.28;53.97;101645.59;5105597;28;19927;-37
2022/08/28 09:21:04;;;;;;;;;;;;;;;24.27;53.91;101649.53;5121784;28;20270;-37
2022/08/28 09:23:30;;;;;;;;;;;;;;;24.27;53.97;101649.53;5124742;28;19924;-37
2022/08/28 09:25:58;;;;;;;;;;;;;;;24.27;53.87;101652.31;5122430;28;19931;-37
2022/08/28 09:28:35;;;;;;;;;;;;;;;24.28;53.57;101651.19;5121217;28;19975;-39
2022/08/28 09:31:03;;;;;;;;;;;;;;;24.29;53.28;101657.56;5125413;28;19959;-37
2022/08/28 09:33:45;;;;;;;;;;;;;;;24.28;53.87;101664.25;5102390;28;19924;-37
2022/08/28 09:36:19;;;;;;;;;;;;;;;24.28;53.78;101661.47;5127535;27;20022;-37
2022/08/28 09:38:45;;;;;;;;;;;;;;;24.27;53.83;101657.88;5123219;28;20358;-37
2022/08/28 09:43:56;;;;;;;;;;;;;;;24.26;53.90;101658.16;5105377;28;20014;-37
2022/08/28 09:46:24;;;;;;;;;;;;;;;24.27;53.95;101657.88;5121286;28;19931;-37
2022/08/28 09:48:51;;;;;;;;;;;;;;;24.26;53.93;101664.53;5100034;28;19924;-38
2022/08/28 09:54:01;;;;;;;;;;;;;;;24.28;53.86;101655.91;5180557;27;19933;-36
2022/08/28 09:56:28;;;;;;;;;;;;;;;24.27;53.81;101657.88;5165629;27;19966;-37
2022/08/28 09:58:58;;;;;;;;;;;;;;;24.28;53.31;101651.19;5167687;27;19971;-37
2022/08/28 10:01:43;;;;;;;;;;;;;;;24.27;54.06;101651.47;5168434;27;20005;-37
2022/08/28 10:04:15;;;;;;;;;;;;;;;24.26;53.86;101647.84;5151024;27;19923;-37
2022/08/28 10:07:02;;;;;;;;;;;;;;;24.28;53.81;101653.13;5165685;27;19927;-37
2022/08/28 10:09:39;;;;;;;;;;;;;;;24.27;53.77;101646.75;5150111;27;19970;-37
2022/08/28 10:12:21;;;;;;;;;;;;;;;24.27;53.95;101643.97;5146993;27;19931;-36
2022/08/28 10:14:51;;;;;;;;;;;;;;;24.26;53.86;101645.06;5167625;27;20025;-37
2022/08/28 10:17:24;;;;;;;;;;;;;;;24.26;53.89;101642.28;5166607;27;20014;-37
2022/08/28 10:19:53;;;;;;;;;;;;;;;24.27;53.86;101640.34;5166661;27;19977;-37
2022/08/28 10:22:23;;;;;;;;;;;;;;;24.26;53.86;101633.94;5149468;27;20013;-37
2022/08/28 10:25:09;;;;;;;;;;;;;;;24.26;53.90;101642.28;5167466;27;20486;-37
2022/08/28 10:27:42;;;;;;;;;;;;;;;24.27;53.90;101643.13;5151226;27;20280;-37
2022/08/28 10:30:10;;;;;;;;;;;;;;;24.26;53.95;101650.63;5167502;27;20402;-37
2022/08/28 10:32:58;;;;;;;;;;;;;;;24.26;53.90;101647.84;5164673;27;19997;-37
2022/08/28 10:35:28;;;;;;;;;;;;;;;24.27;53.94;101643.13;5151737;27;20373;-37
2022/08/28 10:38:04;;;;;;;;;;;;;;;24.26;53.87;101644.25;5165955;27;20022;-37
2022/08/28 10:40:31;;;;;;;;;;;;;;;24.27;53.49;101648.69;5165982;27;20014;-37
2022/08/28 10:43:00;;;;;;;;;;;;;;;24.27;53.92;101640.34;5168413;27;20353;-37
2022/08/28 10:45:26;;;;;;;;;;;;;;;24.27;53.74;101643.13;5167846;27;19962;-37
2022/08/28 10:47:54;;;;;;;;;;;;;;;24.26;53.82;101650.63;5164294;27;19923;-37
2022/08/28 10:50:21;;;;;;;;;;;;;;;24.26;53.86;101650.63;5167793;27;19974;-37
2022/08/28 10:52:49;;;;;;;;;;;;;;;24.26;53.96;101642.28;5167891;27;19962;-37
2022/08/28 10:55:18;;;;;;;;;;;;;;;24.26;53.94;101638.66;5165800;27;19955;-37
2022/08/28 10:57:48;;;;;;;;;;;;;;;24.26;53.79;101639.50;5147375;27;20013;-38
2022/08/28 11:00:15;;;;;;;;;;;;;;;24.25;53.95;101640.63;5167003;27;19973;-38
2022/08/28 11:02:41;;;;;;;;;;;;;;;24.26;53.82;101649.81;5148469;27;20013;-37
2022/08/28 11:05:06;;;;;;;;;;;;;;;24.26;53.83;101644.25;5153384;27;20281;-38
2022/08/28 11:07:40;;;;;;;;;;;;;;;24.26;53.77;101650.63;5150699;27;20353;-37
2022/08/28 11:10:26;;;;;;;;;;;;;;;24.25;53.95;101646.19;5135092;27;20021;-37
2022/08/28 11:12:51;;;;;;;;;;;;;;;24.26;53.86;101641.44;5137416;27;20057;-37
2022/08/28 11:15:36;;;;;;;;;;;;;;;24.26;53.83;101642.28;5153473;27;19923;-37
2022/08/28 11:18:22;;;;;;;;;;;;;;;24.27;53.81;101643.13;5152178;27;20281;-37
2022/08/28 11:20:54;;;;;;;;;;;;;;;24.25;53.91;101642.59;5137176;27;19923;-37
2022/08/28 11:23:21;;;;;;;;;;;;;;;24.26;53.87;101644.25;5153598;27;19962;-38
2022/08/28 11:25:57;;;;;;;;;;;;;;;24.26;53.67;101638.66;5152148;27;19966;-37
2022/08/28 11:33:43;;;;;;;;;;;;;;;24.26;53.79;101633.09;5168991;27;20034;-37
2022/08/28 11:36:28;;;;;;;;;;;;;;;24.26;53.83;101631.16;5143103;27;19989;-37
2022/08/28 11:38:57;;;;;;;;;;;;;;;24.25;53.86;101637.03;5151279;27;19977;-37
2022/08/28 11:41:31;;;;;;;;;;;;;;;24.26;53.87;101647.03;5165992;27;20011;-37
2022/08/28 11:44:16;;;;;;;;;;;;;;;24.25;53.81;101639.81;5140172;27;20015;-37
2022/08/28 11:46:43;;;;;;;;;;;;;;;24.25;53.84;101643.41;5139064;27;19963;-37
2022/08/28 11:49:28;;;;;;;;;;;;;;;24.25;53.79;101650.94;5141723;27;20384;-37
2022/08/28 11:54:46;;;;;;;;;;;;;;;24.25;53.90;101635.06;5167808;27;19930;-37
2022/08/28 11:57:13;;;;;;;;;;;;;;;24.24;53.87;101633.41;5146276;27;19966;-37
2022/08/28 12:02:42;;;;;;;;;;;;;;;24.25;53.89;101639.81;5168292;27;20367;-37
2022/08/28 12:07:53;;;;;;;;;;;;;;;24.25;53.79;101643.41;5159635;27;19929;-37
2022/08/28 12:10:21;;;;;;;;;;;;;;;24.25;53.72;101628.66;5155837;27;19923;-37
2022/08/28 12:15:29;;;;;;;;;;;;;;;24.25;53.89;101628.66;5174711;27;19925;-37
2022/08/28 12:17:56;;;;;;;;;;;;;;;24.24;53.65;101641.75;5145898;27;20026;-37
2022/08/28 12:20:23;;;;;;;;;;;;;;;24.25;53.80;101634.22;5130695;27;19965;-37
2022/08/28 12:22:51;;;;;;;;;;;;;;;24.25;53.78;101628.66;5148325;27;19978;-37
2022/08/28 12:25:34;;;;;;;;;;;;;;;24.25;53.81;101625.88;5154180;27;19966;-37
2022/08/28 12:28:02;;;;;;;;;;;;;;;24.25;53.70;101625.88;5147627;27;20022;-37
2022/08/28 12:30:31;;;;;;;;;;;;;;;24.24;53.71;101619.50;5149505;27;19966;-37
2022/08/28 12:33:16;;;;;;;;;;;;;;;24.25;53.71;101614.75;5148698;27;19930;-37
2022/08/28 12:35:42;;;;;;;;;;;;;;;24.25;53.87;101628.66;5141585;27;20413;-37
2022/08/28 12:38:09;;;;;;;;;;;;;;;24.24;53.75;101616.72;5144556;27;19935;-37
2022/08/28 12:43:26;;;;;;;;;;;;;;;24.23;53.80;101609.50;5175274;27;19929;-37
2022/08/28 12:45:55;;;;;;;;;;;;;;;24.24;53.85;101619.50;5151490;27;20010;-37
2022/08/28 12:48:24;;;;;;;;;;;;;;;24.24;53.85;101608.34;5156670;27;19923;-37
2022/08/28 12:51:06;;;;;;;;;;;;;;;24.24;53.82;101601.97;5144766;27;20006;-37
2022/08/28 12:53:36;;;;;;;;;;;;;;;24.24;53.82;101613.94;5161800;27;19962;-37
2022/08/28 12:56:02;;;;;;;;;;;;;;;24.25;53.75;101614.75;5136560;27;20393;-37
2022/08/28 12:58:35;;;;;;;;;;;;;;;24.25;53.87;101614.75;5161533;27;21327;-37
2022/08/28 13:01:02;;;;;;;;;;;;;;;24.25;53.81;101611.97;5145471;27;20083;-37
2022/08/28 13:03:28;;;;;;;;;;;;;;;24.24;53.83;101608.34;5156814;27;20442;-37